Time;durP1;ratioP1;P1;durP2;ratioP2;P2;SDS_P1;SDS_P2;PMS_P1;PMS_P2;Temp;Humidity;BMP_temperature;BMP_pressure;BME280_temperature;BME280_humidity;BME280_pressure;Samples;Min_cycle;Max_cycle;Signal;HPM_P1;HPM_P2
2022/05/21 00:01:47;;;;;;;13.07;4.20;;;11.80;87.40;;;;;;5056677;28;20191;-87
2022/05/21 00:04:12;;;;;;;8.93;3.60;;;11.80;87.60;;;;;;5038689;28;20176;-88
2022/05/21 00:06:40;;;;;;;11.33;3.87;;;11.80;87.50;;;;;;5056785;28;20168;-87
2022/05/21 00:09:05;;;;;;;7.37;3.33;;;11.80;87.60;;;;;;5038545;28;20196;-88
2022/05/21 00:11:31;;;;;;;7.60;3.40;;;11.70;87.30;;;;;;5038831;28;20202;-87
2022/05/21 00:13:56;;;;;;;8.93;3.30;;;11.60;87.40;;;;;;5038625;28;20168;-87
2022/05/21 00:16:23;;;;;;;9.47;2.93;;;11.60;87.30;;;;;;5038497;28;20638;-87
2022/05/21 00:18:49;;;;;;;8.73;3.23;;;11.50;87.30;;;;;;5038568;28;20180;-87
2022/05/21 00:21:14;;;;;;;13.27;3.80;;;11.50;87.20;;;;;;5038318;28;20200;-86
2022/05/21 00:23:41;;;;;;;8.53;3.67;;;11.50;87.30;;;;;;5038369;28;20330;-87
2022/05/21 00:26:09;;;;;;;12.40;3.90;;;11.60;87.40;;;;;;5056282;28;20179;-87
2022/05/21 00:28:37;;;;;;;8.53;4.00;;;11.50;87.50;;;;;;5038324;28;20196;-86
2022/05/21 00:31:03;;;;;;;9.33;3.97;;;11.50;87.50;;;;;;5054873;28;20277;-87
2022/05/21 00:33:29;;;;;;;12.23;4.40;;;11.50;87.40;;;;;;5056117;28;20222;-87
2022/05/21 00:35:55;;;;;;;6.97;4.07;;;11.50;87.50;;;;;;5038122;28;20223;-87
2022/05/21 00:38:21;;;;;;;12.87;4.60;;;11.50;87.60;;;;;;5055943;28;20183;-87
2022/05/21 00:40:47;;;;;;;6.90;4.10;;;11.50;87.90;;;;;;5055836;28;20283;-87
2022/05/21 00:43:35;;;;;;;7.40;4.23;;;11.50;87.90;;;;;;5037756;28;20187;-87
2022/05/21 00:46:02;;;;;;;12.87;4.67;;;11.50;88.10;;;;;;5038157;28;20179;-87
2022/05/21 00:48:27;;;;;;;8.20;4.30;;;11.50;88.30;;;;;;5037556;28;20199;-87
2022/05/21 00:50:53;;;;;;;8.20;4.23;;;11.50;88.40;;;;;;5037827;28;20265;-88
2022/05/21 00:53:20;;;;;;;9.77;4.13;;;11.50;88.40;;;;;;5055790;28;20168;-87
2022/05/21 00:55:46;;;;;;;10.27;4.50;;;11.40;88.30;;;;;;5037736;28;20182;-87
2022/05/21 01:01:01;;;;;;;10.03;4.00;;;11.40;88.20;;;;;;5055729;28;20214;-87
2022/05/21 01:03:29;;;;;;;14.63;4.47;;;11.30;88.40;;;;;;5037709;28;20271;-87
2022/05/21 01:05:55;;;;;;;8.40;4.40;;;11.40;88.70;;;;;;5037439;28;20557;-86
2022/05/21 01:08:20;;;;;;;9.10;3.87;;;11.50;88.60;;;;;;5037470;28;20203;-87
2022/05/21 01:10:50;;;;;;;11.13;4.93;;;11.40;88.50;;;;;;5037500;28;20199;-87
2022/05/21 01:13:20;;;;;;;12.37;4.23;;;11.30;88.70;;;;;;5037402;28;20176;-87
2022/05/21 01:15:51;;;;;;;11.53;3.97;;;11.30;88.70;;;;;;5037255;28;20326;-88
2022/05/21 01:18:16;;;;;;;9.50;4.53;;;11.30;88.80;;;;;;5037337;28;20172;-87
2022/05/21 01:20:47;;;;;;;14.73;3.67;;;11.20;88.80;;;;;;5037365;28;20203;-86
2022/05/21 01:23:13;;;;;;;7.90;3.60;;;11.20;88.70;;;;;;5055224;28;20215;-87
2022/05/21 01:25:40;;;;;;;9.23;3.53;;;11.20;88.50;;;;;;5037304;28;20597;-86
2022/05/21 01:28:11;;;;;;;10.43;3.80;;;11.20;88.70;;;;;;5037134;28;20228;-87
2022/05/21 01:30:39;;;;;;;4.47;2.90;;;11.20;88.50;;;;;;5037075;28;20253;-87
2022/05/21 01:33:07;;;;;;;10.33;3.57;;;11.20;88.50;;;;;;5054846;28;20187;-87
2022/05/21 01:35:33;;;;;;;8.77;3.77;;;11.20;88.50;;;;;;5054907;28;20676;-87
2022/05/21 01:37:58;;;;;;;9.50;3.37;;;11.30;88.30;;;;;;5037237;28;20519;-87
2022/05/21 01:40:25;;;;;;;7.60;3.50;;;11.30;88.20;;;;;;5037013;28;20287;-87
2022/05/21 01:45:36;;;;;;;10.67;4.07;;;11.20;88.40;;;;;;5055473;28;20163;-87
2022/05/21 01:48:02;;;;;;;8.87;3.67;;;11.30;88.40;;;;;;5036727;28;20277;-87
2022/05/21 01:50:29;;;;;;;8.70;4.10;;;11.30;88.50;;;;;;5036806;28;20605;-87
2022/05/21 01:52:54;;;;;;;8.27;3.90;;;11.30;88.40;;;;;;5036687;28;20176;-87
2022/05/21 01:55:20;;;;;;;8.27;4.00;;;11.30;88.60;;;;;;5054458;28;20638;-87
2022/05/21 01:57:46;;;;;;;8.53;4.27;;;11.30;88.80;;;;;;5036600;28;20180;-87
2022/05/21 02:00:12;;;;;;;5.53;4.57;;;11.30;89.10;;;;;;5054406;28;20739;-87
2022/05/21 02:02:38;;;;;;;8.07;4.40;;;11.30;89.30;;;;;;5054385;28;20207;-87
2022/05/21 02:05:04;;;;;;;8.77;4.97;;;11.40;89.40;;;;;;5036575;28;20175;-87
2022/05/21 02:07:30;;;;;;;8.93;4.97;;;11.40;89.60;;;;;;5054268;28;20187;-87
2022/05/21 02:09:55;;;;;;;9.40;5.73;;;11.30;89.80;;;;;;5054403;28;20200;-87
2022/05/21 02:12:21;;;;;;;10.00;5.50;;;11.40;90.00;;;;;;5036565;28;20715;-87
2022/05/21 02:14:47;;;;;;;10.60;5.77;;;11.50;90.10;;;;;;5036272;28;20168;-87
2022/05/21 02:17:15;;;;;;;9.97;5.87;;;11.50;90.10;;;;;;5054267;28;20196;-87
2022/05/21 02:19:40;;;;;;;11.03;5.60;;;11.50;90.10;;;;;;5036088;28;20183;-87
2022/05/21 02:22:06;;;;;;;11.20;5.87;;;11.50;90.10;;;;;;5053885;28;20188;-87
2022/05/21 02:24:31;;;;;;;9.73;5.17;;;11.50;90.00;;;;;;5054013;28;20226;-87
2022/05/21 02:26:57;;;;;;;10.20;4.47;;;11.50;90.00;;;;;;5036291;28;20180;-87
2022/05/21 02:29:23;;;;;;;11.13;4.73;;;11.50;89.90;;;;;;5035906;28;20211;-87
2022/05/21 02:31:51;;;;;;;11.80;4.23;;;11.50;89.80;;;;;;5036007;28;20576;-87
2022/05/21 02:34:16;;;;;;;9.40;3.87;;;11.50;89.70;;;;;;5053834;28;20541;-87
2022/05/21 02:39:26;;;;;;;7.93;4.10;;;11.60;89.70;;;;;;5054332;28;20229;-88
2022/05/21 02:41:52;;;;;;;7.83;4.20;;;11.60;89.70;;;;;;5053725;28;20721;-87
2022/05/21 02:44:17;;;;;;;13.87;4.60;;;11.50;89.80;;;;;;5053627;28;20256;-88
2022/05/21 02:46:43;;;;;;;8.67;5.37;;;11.60;89.90;;;;;;5053773;28;20180;-87
2022/05/21 02:49:08;;;;;;;9.27;5.07;;;11.60;89.80;;;;;;5053489;28;20682;-87
2022/05/21 02:51:34;;;;;;;10.13;5.30;;;11.60;89.80;;;;;;5053512;28;20677;-87
2022/05/21 02:53:59;;;;;;;10.57;5.07;;;11.60;89.70;;;;;;5035008;28;20171;-87
2022/05/21 02:56:25;;;;;;;13.17;6.60;;;11.60;89.70;;;;;;5053462;28;20168;-88
2022/05/21 02:58:50;;;;;;;11.63;7.20;;;11.70;89.80;;;;;;5053581;28;20176;-87
2022/05/21 03:01:16;;;;;;;13.73;6.97;;;11.70;89.70;;;;;;5035793;28;20266;-87
2022/05/21 03:03:41;;;;;;;14.70;8.00;;;11.70;89.70;;;;;;5035826;28;20650;-88
2022/05/21 03:06:07;;;;;;;9.80;6.53;;;11.70;89.70;;;;;;5053810;28;20176;-87
2022/05/21 03:11:17;;;;;;;13.97;7.03;;;11.70;90.00;;;;;;5053885;28;20561;-87
2022/05/21 03:13:42;;;;;;;6.87;6.10;;;11.60;89.70;;;;;;5053539;28;20168;-87
2022/05/21 03:16:08;;;;;;;10.97;7.00;;;11.60;89.70;;;;;;5053536;28;20645;-87
2022/05/21 03:18:34;;;;;;;10.87;6.60;;;11.60;89.50;;;;;;5053683;28;20183;-87
2022/05/21 03:21:00;;;;;;;14.93;6.67;;;11.60;89.40;;;;;;5053464;28;20218;-87
2022/05/21 03:23:25;;;;;;;13.43;7.23;;;11.70;89.50;;;;;;5035787;28;20262;-87
2022/05/21 03:25:51;;;;;;;11.37;6.83;;;11.60;89.50;;;;;;5035779;28;20182;-87
2022/05/21 03:28:18;;;;;;;12.63;6.50;;;11.60;89.50;;;;;;5035588;28;20196;-87
2022/05/21 03:30:44;;;;;;;12.50;6.13;;;11.60;89.60;;;;;;5053510;28;20200;-87
2022/05/21 03:33:10;;;;;;;9.47;5.83;;;11.60;89.40;;;;;;5035467;28;20187;-87
2022/05/21 03:35:35;;;;;;;14.47;5.43;;;11.60;89.40;;;;;;5035621;28;20174;-87
2022/05/21 03:38:01;;;;;;;8.30;5.70;;;11.60;89.10;;;;;;5035387;28;20529;-86
2022/05/21 03:40:30;;;;;;;11.40;5.73;;;11.60;89.20;;;;;;5035609;28;20203;-86
2022/05/21 03:42:55;;;;;;;7.53;5.17;;;11.60;89.00;;;;;;5053075;28;20173;-87
2022/05/21 03:45:22;;;;;;;15.37;5.90;;;11.60;89.10;;;;;;5053141;28;20707;-86
2022/05/21 03:47:48;;;;;;;9.67;6.57;;;11.60;89.30;;;;;;5053121;28;20172;-87
2022/05/21 03:50:17;;;;;;;12.20;6.20;;;11.70;89.40;;;;;;5053422;28;20196;-87
2022/05/21 03:52:43;;;;;;;10.80;6.43;;;11.70;89.30;;;;;;5035257;28;20176;-87
2022/05/21 03:55:10;;;;;;;9.73;6.17;;;11.70;89.30;;;;;;5035314;28;20599;-88
2022/05/21 03:57:36;;;;;;;12.73;6.13;;;11.70;89.30;;;;;;5052996;28;20179;-88
2022/05/21 04:00:04;;;;;;;12.80;6.93;;;11.60;89.50;;;;;;5035048;28;20190;-88
2022/05/21 04:02:29;;;;;;;9.17;7.07;;;11.70;89.40;;;;;;5034968;28;20646;-86
2022/05/21 04:04:55;;;;;;;17.27;7.73;;;11.70;89.60;;;;;;5054918;28;20172;-88
2022/05/21 04:07:20;;;;;;;11.83;8.57;;;11.70;89.60;;;;;;5038895;28;20183;-88
2022/05/21 04:09:46;;;;;;;13.93;9.17;;;11.70;89.90;;;;;;5038972;28;20211;-87
2022/05/21 04:12:11;;;;;;;17.90;9.73;;;11.70;90.00;;;;;;5038850;28;20222;-88
2022/05/21 04:14:37;;;;;;;14.43;11.10;;;11.80;90.00;;;;;;5038984;28;20241;-87
2022/05/21 04:17:10;;;;;;;16.17;10.50;;;11.80;90.00;;;;;;5058205;28;20168;-87
2022/05/21 04:19:36;;;;;;;18.30;11.23;;;11.80;90.10;;;;;;5040112;28;20176;-87
2022/05/21 04:22:02;;;;;;;21.73;11.70;;;11.80;90.10;;;;;;5040099;28;20207;-88
2022/05/21 04:24:27;;;;;;;18.83;12.87;;;11.90;90.00;;;;;;5040210;28;20183;-88
2022/05/21 04:26:53;;;;;;;20.20;12.80;;;11.90;90.00;;;;;;5039874;28;20180;-87
2022/05/21 04:29:19;;;;;;;22.03;14.30;;;11.90;90.20;;;;;;5039636;28;20200;-87
2022/05/21 04:31:45;;;;;;;24.67;14.30;;;11.90;90.20;;;;;;5057629;28;20208;-87
2022/05/21 04:34:11;;;;;;;17.07;13.73;;;11.90;90.30;;;;;;5057535;28;20168;-87
2022/05/21 04:36:37;;;;;;;23.20;14.53;;;11.90;90.20;;;;;;5039795;28;20528;-88
2022/05/21 04:39:03;;;;;;;23.17;14.93;;;12.00;90.40;;;;;;5040070;28;20230;-87
2022/05/21 04:41:29;;;;;;;18.97;14.77;;;12.00;90.30;;;;;;5057616;28;20666;-87
2022/05/21 04:43:55;;;;;;;24.00;15.60;;;12.00;90.20;;;;;;5039817;28;20270;-88
2022/05/21 04:46:22;;;;;;;19.97;15.33;;;12.00;90.20;;;;;;5058128;28;20638;-88
2022/05/21 04:48:48;;;;;;;25.80;15.97;;;12.00;90.20;;;;;;5040331;28;20203;-87
2022/05/21 04:51:14;;;;;;;24.47;17.27;;;12.00;90.20;;;;;;5039666;28;20206;-87
2022/05/21 04:53:41;;;;;;;25.90;15.87;;;12.00;90.30;;;;;;5057895;28;20514;-87
2022/05/21 04:56:06;;;;;;;24.73;16.43;;;12.00;90.40;;;;;;5039797;28;20183;-87
2022/05/21 04:58:33;;;;;;;21.50;16.20;;;12.10;90.50;;;;;;5039589;28;20172;-87
2022/05/21 05:00:59;;;;;;;32.27;18.20;;;12.10;90.50;;;;;;5057504;28;20576;-87
2022/05/21 05:03:24;;;;;;;29.43;17.67;;;12.10;90.50;;;;;;5039608;28;20275;-87
2022/05/21 05:05:51;;;;;;;27.43;17.07;;;12.20;90.60;;;;;;5040037;28;20222;-87
2022/05/21 05:08:19;;;;;;;30.77;18.23;;;12.20;90.50;;;;;;5039635;28;20198;-88
2022/05/21 05:10:46;;;;;;;27.23;17.57;;;12.20;90.40;;;;;;5040302;28;20195;-87
2022/05/21 05:13:13;;;;;;;27.43;17.10;;;12.20;90.50;;;;;;5057892;28;20259;-88
2022/05/21 05:15:39;;;;;;;23.33;18.30;;;12.20;90.60;;;;;;5056949;28;20229;-87
2022/05/21 05:18:10;;;;;;;29.20;19.70;;;12.30;90.70;;;;;;5038770;28;20642;-87
2022/05/21 05:20:37;;;;;;;24.07;18.63;;;12.30;90.80;;;;;;5056209;28;20188;-87
2022/05/21 05:23:04;;;;;;;31.13;20.40;;;12.20;90.80;;;;;;5039099;28;20172;-87
2022/05/21 05:25:30;;;;;;;26.90;20.17;;;12.20;91.10;;;;;;5039054;28;20302;-87
2022/05/21 05:27:56;;;;;;;33.37;20.30;;;12.20;91.10;;;;;;5037490;28;20642;-86
2022/05/21 05:30:23;;;;;;;27.13;20.20;;;12.30;91.30;;;;;;5037481;28;20202;-87
2022/05/21 05:32:49;;;;;;;27.77;20.60;;;12.30;91.40;;;;;;5055288;28;20609;-87
2022/05/21 05:35:15;;;;;;;28.27;19.93;;;12.30;91.60;;;;;;5037484;28;20651;-86
2022/05/21 05:37:40;;;;;;;27.80;19.67;;;12.30;91.80;;;;;;5037238;28;20271;-86
2022/05/21 05:40:09;;;;;;;34.07;19.37;;;12.20;91.70;;;;;;5037264;28;20216;-87
2022/05/21 05:42:35;;;;;;;23.47;18.83;;;12.20;91.80;;;;;;5037197;28;20176;-86
2022/05/21 05:45:02;;;;;;;23.23;19.57;;;12.30;91.80;;;;;;5037458;28;20180;-87
2022/05/21 05:47:28;;;;;;;27.93;19.47;;;12.30;92.00;;;;;;5037138;28;20172;-87
2022/05/21 05:49:54;;;;;;;28.93;17.83;;;12.30;92.00;;;;;;5037135;28;20195;-87
2022/05/21 05:52:19;;;;;;;25.83;18.77;;;12.30;92.20;;;;;;5055310;28;20175;-87
2022/05/21 05:54:46;;;;;;;31.03;21.23;;;12.30;92.20;;;;;;5037033;28;20614;-87
2022/05/21 05:57:11;;;;;;;24.90;20.03;;;12.30;92.30;;;;;;5036910;28;20643;-87
2022/05/21 05:59:50;;;;;;;33.60;22.53;;;12.40;92.50;;;;;;5037134;28;20229;-87
2022/05/21 06:05:08;;;;;;;38.63;24.47;;;12.50;92.70;;;;;;5055326;28;20171;-87
2022/05/21 06:07:40;;;;;;;32.90;22.50;;;12.50;92.70;;;;;;5036711;28;20188;-87
2022/05/21 06:10:08;;;;;;;29.57;24.07;;;12.50;92.50;;;;;;5036742;28;20196;-86
2022/05/21 06:12:34;;;;;;;40.10;23.70;;;12.60;92.60;;;;;;5054496;28;20194;-86
2022/05/21 06:15:00;;;;;;;34.83;25.67;;;12.50;92.50;;;;;;5036552;28;20639;-87
2022/05/21 06:17:26;;;;;;;38.03;25.53;;;12.60;92.40;;;;;;5036701;28;20175;-87
2022/05/21 06:19:52;;;;;;;38.23;25.07;;;12.70;92.50;;;;;;5036576;28;20176;-87
2022/05/21 06:22:18;;;;;;;34.50;26.40;;;12.70;92.40;;;;;;5054513;28;20175;-86
2022/05/21 06:24:44;;;;;;;38.43;26.77;;;12.70;92.30;;;;;;5036534;28;20214;-87
2022/05/21 06:27:09;;;;;;;35.50;26.90;;;12.80;92.30;;;;;;5036546;28;20184;-87
2022/05/21 06:29:38;;;;;;;35.57;27.00;;;12.80;92.50;;;;;;5054277;28;20192;-87
2022/05/21 06:32:05;;;;;;;37.53;27.03;;;12.90;92.50;;;;;;5036199;28;20676;-87
2022/05/21 06:34:32;;;;;;;32.07;25.80;;;13.00;92.50;;;;;;5036752;28;20226;-87
2022/05/21 06:37:06;;;;;;;34.37;24.37;;;13.00;92.60;;;;;;5036359;28;20172;-88
2022/05/21 06:39:33;;;;;;;36.83;24.73;;;13.00;92.50;;;;;;5054282;28;20200;-87
2022/05/21 06:41:59;;;;;;;39.00;25.17;;;13.10;92.60;;;;;;5036193;28;20294;-87
2022/05/21 06:44:26;;;;;;;36.70;24.67;;;13.10;92.40;;;;;;5035982;28;20210;-91
2022/05/21 06:46:52;;;;;;;48.83;24.73;;;13.20;92.20;;;;;;5035725;28;20176;-88
2022/05/21 06:49:18;;;;;;;33.30;22.97;;;13.20;92.20;;;;;;5053542;28;20191;-88
2022/05/21 06:51:44;;;;;;;38.17;22.70;;;13.20;92.10;;;;;;5053749;28;20194;-87
2022/05/21 06:54:09;;;;;;;33.40;21.80;;;13.30;92.10;;;;;;5053812;28;20230;-88
2022/05/21 06:56:38;;;;;;;30.27;21.80;;;13.20;91.80;;;;;;5035889;28;20191;-88
2022/05/21 06:59:03;;;;;;;30.37;21.00;;;13.30;91.70;;;;;;5036373;28;20301;-87
2022/05/21 07:01:29;;;;;;;33.63;21.33;;;13.30;91.80;;;;;;5054258;28;20195;-87
2022/05/21 07:03:54;;;;;;;35.13;22.33;;;13.40;91.90;;;;;;5036059;28;20737;-88
2022/05/21 07:09:04;;;;;;;30.10;19.73;;;13.60;91.50;;;;;;5053861;28;20727;-89
2022/05/21 07:11:29;;;;;;;31.03;20.97;;;13.70;91.40;;;;;;5035324;28;20187;-88
2022/05/21 07:13:55;;;;;;;33.27;20.83;;;13.90;91.40;;;;;;5053667;28;20184;-89
2022/05/21 07:16:20;;;;;;;36.90;18.50;;;14.10;91.50;;;;;;5035610;28;20183;-88
2022/05/21 07:18:46;;;;;;;26.67;18.47;;;14.00;90.10;;;;;;5036529;28;20218;-89
2022/05/21 07:21:17;;;;;;;31.20;18.50;;;14.20;90.50;;;;;;5035281;28;20188;-89
2022/05/21 07:23:43;;;;;;;35.20;18.83;;;14.20;90.10;;;;;;5035574;28;20180;-89
2022/05/21 07:26:09;;;;;;;27.77;16.77;;;14.30;90.00;;;;;;5035258;28;20184;-89
2022/05/21 07:28:34;;;;;;;23.00;16.20;;;14.30;90.00;;;;;;5035193;28;20203;-88
2022/05/21 07:31:00;;;;;;;32.33;15.47;;;14.30;89.60;;;;;;5035114;28;20192;-88
2022/05/21 07:33:26;;;;;;;23.67;16.37;;;14.30;89.70;;;;;;5035264;28;20191;-89
2022/05/21 07:35:51;;;;;;;27.07;16.13;;;14.30;89.60;;;;;;5035116;28;20175;-88
2022/05/21 07:38:17;;;;;;;19.03;13.83;;;14.30;89.50;;;;;;5035460;28;20188;-88
2022/05/21 07:40:45;;;;;;;26.80;14.77;;;14.30;89.50;;;;;;5038163;28;20214;-87
2022/05/21 07:43:27;;;;;;;24.77;14.07;;;14.20;89.40;;;;;;5039102;28;20258;-90
2022/05/21 07:45:54;;;;;;;20.63;11.47;;;14.10;89.40;;;;;;5038957;28;20603;-88
2022/05/21 07:48:19;;;;;;;15.67;9.03;;;14.00;89.80;;;;;;5039306;28;20210;-86
2022/05/21 07:50:56;;;;;;;14.30;8.23;;;13.90;90.00;;;;;;5057208;28;20196;-86
2022/05/21 07:53:28;;;;;;;15.43;5.37;;;13.80;90.00;;;;;;5039081;28;20204;-86
2022/05/21 07:55:55;;;;;;;10.97;6.17;;;13.70;90.00;;;;;;5039241;28;20179;-88
2022/05/21 07:58:25;;;;;;;17.87;6.57;;;13.70;89.80;;;;;;5039352;28;20186;-88
2022/05/21 08:00:51;;;;;;;15.77;5.73;;;13.70;89.50;;;;;;5056670;28;20237;-87
2022/05/21 08:03:17;;;;;;;9.47;5.27;;;13.80;89.60;;;;;;5056735;28;20183;-87
2022/05/21 08:05:43;;;;;;;10.90;5.93;;;13.90;89.00;;;;;;5039187;28;20180;-91
2022/05/21 08:08:10;;;;;;;10.93;4.83;;;14.00;89.40;;;;;;5042120;28;20644;-88
2022/05/21 08:10:37;;;;;;;15.47;5.80;;;14.10;89.50;;;;;;5040593;28;20200;-89
2022/05/21 08:13:03;;;;;;;14.43;5.60;;;14.30;89.90;;;;;;5039396;28;20187;-91
2022/05/21 08:15:29;;;;;;;9.60;4.27;;;14.40;88.60;;;;;;5038577;28;20172;-89
2022/05/21 08:17:55;;;;;;;14.33;5.07;;;14.60;89.10;;;;;;5038437;28;20569;-89
2022/05/21 08:20:21;;;;;;;12.97;3.70;;;14.70;89.50;;;;;;5056430;28;20278;-89
2022/05/21 08:28:15;;;;;;;14.97;4.43;;;14.80;87.70;;;;;;5057414;28;20171;-88
2022/05/21 08:30:43;;;;;;;14.17;3.70;;;14.80;87.60;;;;;;5038737;28;20677;-88
2022/05/21 08:33:10;;;;;;;9.03;3.43;;;14.60;86.70;;;;;;5038441;28;20196;-88
2022/05/21 08:35:38;;;;;;;10.03;4.30;;;14.40;87.60;;;;;;5038385;28;20178;-89
2022/05/21 08:38:05;;;;;;;16.27;4.00;;;14.30;88.60;;;;;;5038104;28;20692;-89
2022/05/21 08:40:38;;;;;;;14.33;3.97;;;14.20;88.80;;;;;;5038018;28;20727;-89
2022/05/21 08:43:05;;;;;;;10.63;3.87;;;14.20;89.30;;;;;;5038185;28;20164;-88
2022/05/21 08:45:59;;;;;;;14.60;4.30;;;14.20;89.30;;;;;;5056518;28;20175;-87
2022/05/21 08:48:27;;;;;;;16.23;4.27;;;14.20;89.20;;;;;;5038064;28;20206;-86
2022/05/21 08:50:54;;;;;;;12.87;3.73;;;14.20;89.00;;;;;;5055021;28;20631;-87
2022/05/21 08:53:23;;;;;;;8.23;3.60;;;14.30;89.00;;;;;;5037997;28;20172;-87
2022/05/21 08:55:54;;;;;;;11.43;4.10;;;14.30;89.00;;;;;;5039046;28;20591;-87
2022/05/21 08:58:41;;;;;;;17.53;4.03;;;14.40;88.70;;;;;;5037978;28;20259;-87
2022/05/21 09:01:08;;;;;;;11.47;3.23;;;14.50;88.70;;;;;;5055670;28;20286;-87
2022/05/21 09:03:35;;;;;;;11.37;3.03;;;14.50;87.40;;;;;;5037596;28;20180;-86
2022/05/21 09:06:22;;;;;;;9.73;2.93;;;14.50;86.80;;;;;;5055539;28;20200;-87
2022/05/21 09:09:18;;;;;;;14.33;3.70;;;14.50;87.00;;;;;;5055777;28;20267;-88
2022/05/21 09:12:05;;;;;;;17.50;3.73;;;14.50;86.30;;;;;;5055536;28;20188;-86
2022/05/21 09:14:41;;;;;;;9.33;3.00;;;14.50;86.20;;;;;;5037989;28;20207;-87
2022/05/21 09:17:12;;;;;;;9.57;2.63;;;14.50;86.30;;;;;;5055424;28;20166;-86
2022/05/21 09:19:42;;;;;;;12.63;3.07;;;14.50;86.30;;;;;;5055435;28;20251;-88
2022/05/21 09:22:11;;;;;;;13.27;3.10;;;14.50;86.20;;;;;;5055586;28;20196;-87
2022/05/21 09:24:46;;;;;;;9.47;2.37;;;14.50;85.80;;;;;;5037594;28;20176;-87
2022/05/21 09:27:26;;;;;;;9.63;2.37;;;14.60;85.20;;;;;;5055465;28;20666;-88
2022/05/21 09:30:08;;;;;;;11.70;2.70;;;14.80;85.70;;;;;;5038476;28;20191;-87
2022/05/21 09:32:35;;;;;;;12.37;2.60;;;15.00;85.10;;;;;;5037444;28;20291;-86
2022/05/21 09:35:08;;;;;;;9.93;2.47;;;14.90;84.20;;;;;;5037108;28;20172;-86
2022/05/21 09:37:34;;;;;;;14.30;2.57;;;15.00;83.30;;;;;;5055016;28;20176;-87
2022/05/21 09:40:00;;;;;;;8.30;2.27;;;14.90;82.60;;;;;;5037085;28;20221;-86
2022/05/21 09:45:24;;;;;;;9.20;2.43;;;14.90;82.30;;;;;;5055426;28;20187;-89
2022/05/21 09:48:13;;;;;;;8.33;2.57;;;14.90;82.50;;;;;;5037103;28;20178;-88
2022/05/21 09:50:51;;;;;;;10.23;2.60;;;15.00;82.80;;;;;;5036579;28;20196;-87
2022/05/21 09:53:36;;;;;;;9.20;2.80;;;15.10;82.40;;;;;;5054600;28;20160;-89
2022/05/21 09:56:24;;;;;;;11.63;3.17;;;15.20;82.70;;;;;;5036786;28;20164;-89
2022/05/21 09:58:54;;;;;;;13.43;3.10;;;15.50;82.60;;;;;;5054494;28;20627;-88
2022/05/21 10:01:39;;;;;;;12.07;3.23;;;15.70;82.10;;;;;;5054331;28;20187;-88
2022/05/21 10:04:16;;;;;;;10.87;2.77;;;15.50;80.30;;;;;;5036444;28;20178;-88
2022/05/21 10:06:48;;;;;;;11.63;2.80;;;15.40;80.70;;;;;;5036680;28;20172;-88
2022/05/21 10:12:22;;;;;;;11.03;3.00;;;15.30;79.80;;;;;;5055780;28;20203;-88
2022/05/21 10:15:17;;;;;;;18.60;3.33;;;15.10;80.20;;;;;;5037861;28;20167;-88
2022/05/21 10:17:47;;;;;;;8.87;2.63;;;15.10;81.10;;;;;;5055626;28;20233;-89
2022/05/21 10:20:38;;;;;;;17.77;3.40;;;15.30;81.10;;;;;;5036948;28;20295;-87
2022/05/21 10:23:10;;;;;;;18.03;3.03;;;15.50;80.60;;;;;;5036736;28;20176;-88
2022/05/21 10:26:01;;;;;;;9.63;2.43;;;15.60;79.40;;;;;;5036577;28;20265;-87
2022/05/21 10:29:01;;;;;;;12.73;3.27;;;15.60;79.10;;;;;;5036113;28;20666;-88
2022/05/21 10:31:39;;;;;;;17.45;3.17;;;15.80;79.10;;;;;;5035992;28;20274;-88
2022/05/21 10:34:48;;;;;;;6.20;1.83;;;16.00;78.40;;;;;;5053977;28;20542;-87
2022/05/21 10:37:52;;;;;;;11.82;2.45;;;16.00;76.20;;;;;;5036217;28;20190;-87
2022/05/21 10:40:44;;;;;;;9.40;2.95;;;15.90;76.30;;;;;;5053624;28;20562;-89
2022/05/21 10:43:12;;;;;;;13.55;2.95;;;16.20;75.90;;;;;;5053964;28;20152;-87
2022/05/21 10:45:52;;;;;;;12.88;3.05;;;16.40;75.70;;;;;;5053730;28;20175;-87
2022/05/21 10:48:45;;;;;;;13.98;2.75;;;16.60;75.80;;;;;;5053821;28;20155;-88
2022/05/21 10:51:23;;;;;;;17.73;3.85;;;16.60;74.30;;;;;;5053859;28;20195;-87
2022/05/21 10:54:10;;;;;;;9.02;3.05;;;16.70;74.80;;;;;;5035866;28;20201;-87
2022/05/21 10:57:02;;;;;;;11.50;2.28;;;16.90;74.20;;;;;;5035787;28;20172;-88
2022/05/21 10:59:37;;;;;;;10.02;2.13;;;17.00;73.20;;;;;;5035608;28;20652;-88
2022/05/21 11:02:30;;;;;;;11.18;1.77;;;17.10;71.90;;;;;;5035821;28;20192;-87
2022/05/21 11:05:17;;;;;;;9.43;2.20;;;16.90;70.50;;;;;;5035500;28;20172;-87
2022/05/21 11:07:54;;;;;;;12.90;2.60;;;17.30;72.40;;;;;;5035660;28;20538;-87
2022/05/21 11:10:23;;;;;;;6.45;2.35;;;17.60;71.40;;;;;;5035215;28;20234;-88
2022/05/21 11:12:50;;;;;;;11.68;2.40;;;17.60;69.50;;;;;;5035359;28;20180;-86
2022/05/21 11:15:57;;;;;;;9.52;2.25;;;17.40;69.60;;;;;;5034895;28;20176;-87
2022/05/21 11:18:42;;;;;;;5.47;1.80;;;17.60;69.80;;;;;;4972710;28;20210;-87
2022/05/21 11:21:28;;;;;;;11.63;2.17;;;17.70;69.20;;;;;;5046470;28;20281;-87
2022/05/21 11:24:10;;;;;;;9.30;1.98;;;17.90;65.20;;;;;;5035860;28;20258;-86
2022/05/21 11:26:51;;;;;;;10.68;2.33;;;17.80;68.40;;;;;;5035501;28;20182;-88
2022/05/21 11:29:37;;;;;;;9.65;2.90;;;18.10;67.00;;;;;;5035598;28;20192;-86
2022/05/21 11:37:50;;;;;;;9.13;2.38;;;17.90;65.70;;;;;;5054050;28;20248;-87
2022/05/21 11:47:12;;;;;;;12.57;2.40;;;17.10;67.90;;;;;;5053419;28;20179;-87
2022/05/21 11:49:45;;;;;;;11.80;2.60;;;17.00;67.90;;;;;;5053769;28;20194;-87
2022/05/21 11:52:26;;;;;;;10.70;2.45;;;17.20;69.20;;;;;;5036530;28;20697;-87
2022/05/21 11:54:55;;;;;;;10.90;2.30;;;17.20;67.30;;;;;;5036474;28;20172;-91
2022/05/21 11:57:30;;;;;;;9.15;2.00;;;17.20;67.40;;;;;;5035983;28;20180;-86
2022/05/21 11:59:56;;;;;;;11.98;3.10;;;17.10;66.30;;;;;;5053266;28;20544;-87
2022/05/21 12:02:53;;;;;;;10.52;2.63;;;17.30;67.70;;;;;;5035194;28;20172;-87
2022/05/21 12:05:34;;;;;;;9.00;2.20;;;17.60;67.90;;;;;;5001772;28;20207;-88
2022/05/21 12:08:22;;;;;;;10.02;1.80;;;18.20;67.80;;;;;;5053135;28;20204;-88
2022/05/21 12:11:25;;;;;;;13.63;2.55;;;18.10;66.20;;;;;;5052951;28;20203;-86
2022/05/21 12:14:15;;;;;;;12.10;2.78;;;17.90;66.00;;;;;;5035382;28;20202;-87
2022/05/21 12:16:43;;;;;;;15.48;1.98;;;18.20;66.60;;;;;;5035901;28;20160;-88
2022/05/21 12:19:09;;;;;;;6.50;1.85;;;18.50;64.80;;;;;;5035037;28;20187;-87
2022/05/21 12:21:36;;;;;;;11.45;2.10;;;18.40;62.50;;;;;;5034839;28;20204;-87
2022/05/21 12:24:26;;;;;;;9.38;2.00;;;18.50;64.80;;;;;;5034776;28;20646;-89
2022/05/21 12:27:21;;;;;;;10.55;2.03;;;18.80;64.70;;;;;;5055855;28;20172;-87
2022/05/21 12:29:48;;;;;;;12.20;2.35;;;19.10;64.30;;;;;;5038281;28;20196;-87
2022/05/21 12:32:21;;;;;;;12.45;1.90;;;19.20;63.00;;;;;;5038083;28;20239;-88
2022/05/21 12:35:07;;;;;;;11.63;2.10;;;19.00;61.20;;;;;;5038270;28;20214;-88
2022/05/21 12:37:41;;;;;;;13.88;2.28;;;18.20;61.70;;;;;;5038094;28;20520;-88
2022/05/21 12:40:29;;;;;;;22.02;3.05;;;18.20;63.20;;;;;;5038136;28;20267;-88
2022/05/21 12:43:12;;;;;;;10.55;2.85;;;17.90;61.80;;;;;;5038170;28;20183;-88
2022/05/21 12:45:50;;;;;;;10.40;1.95;;;17.80;63.10;;;;;;5038113;28;20641;-88
2022/05/21 12:48:34;;;;;;;8.93;2.08;;;18.00;63.60;;;;;;5038780;28;20237;-87
2022/05/21 12:51:03;;;;;;;6.55;2.22;;;18.20;63.80;;;;;;5037916;28;20196;-87
2022/05/21 12:53:37;;;;;;;16.38;2.50;;;18.00;62.80;;;;;;5037836;28;20645;-87
2022/05/21 12:56:12;;;;;;;8.52;1.80;;;18.30;63.80;;;;;;5037729;28;20172;-88
2022/05/21 12:58:38;;;;;;;9.93;2.72;;;18.30;63.80;;;;;;5038467;28;20178;-88
2022/05/21 13:01:05;;;;;;;9.45;2.30;;;18.20;62.00;;;;;;5037834;28;20562;-87
2022/05/21 13:03:33;;;;;;;9.65;1.77;;;18.10;62.40;;;;;;5055499;28;20542;-88
2022/05/21 13:06:03;;;;;;;15.98;2.33;;;18.00;63.00;;;;;;5037680;28;20230;-88
2022/05/21 13:08:31;;;;;;;7.13;2.05;;;18.20;63.60;;;;;;5037549;28;20657;-88
2022/05/21 13:11:12;;;;;;;13.85;2.00;;;18.40;63.40;;;;;;5055184;28;20192;-87
2022/05/21 13:13:40;;;;;;;10.73;2.78;;;18.40;62.50;;;;;;5037639;28;20171;-87
2022/05/21 13:16:15;;;;;;;13.05;2.63;;;18.20;62.30;;;;;;5055585;28;20168;-88
2022/05/21 13:19:10;;;;;;;7.80;2.03;;;18.00;63.40;;;;;;5037367;28;20225;-88
2022/05/21 13:22:03;;;;;;;8.95;1.85;;;17.90;62.50;;;;;;5055339;28;20546;-89
2022/05/21 13:24:46;;;;;;;19.80;2.83;;;17.70;62.50;;;;;;5037384;28;20168;-89
2022/05/21 13:27:20;;;;;;;11.15;2.17;;;17.70;63.70;;;;;;5037308;28;20267;-88
2022/05/21 13:29:47;;;;;;;10.02;2.35;;;18.00;63.50;;;;;;5037515;28;20264;-86
2022/05/21 13:32:28;;;;;;;11.38;2.13;;;18.00;63.50;;;;;;5036946;28;20652;-87
2022/05/21 13:35:02;;;;;;;12.00;2.25;;;18.00;64.00;;;;;;5055403;28;20165;-86
2022/05/21 13:37:33;;;;;;;10.25;2.20;;;18.20;62.60;;;;;;5054444;28;20160;-87